sensor_id;sensor_type;location;lat;lon;timestamp;pressure;altitude;pressure_sealevel;temperature;humidity
68656;BME280;55638;51.122;13.606;2023-03-26T00:00:46;99082.06;;;7.40;54.42
68656;BME280;55638;51.122;13.606;2023-03-26T00:02:20;99083.06;;;7.39;54.32
68656;BME280;55638;51.122;13.606;2023-03-26T00:03:54;99079.66;;;7.37;54.33
68656;BME280;55638;51.122;13.606;2023-03-26T00:05:28;99088.69;;;7.36;54.12
68656;BME280;55638;51.122;13.606;2023-03-26T00:07:02;99092.47;;;7.33;54.49
68656;BME280;55638;51.122;13.606;2023-03-26T00:08:36;99104.31;;;7.31;54.73
68656;BME280;55638;51.122;13.606;2023-03-26T00:10:08;99095.44;;;7.30;54.53
68656;BME280;55638;51.122;13.606;2023-03-26T00:11:41;99095.44;;;7.30;54.65
68656;BME280;55638;51.122;13.606;2023-03-26T00:13:13;99102.63;;;7.30;54.65
68656;BME280;55638;51.122;13.606;2023-03-26T00:14:45;99103.63;;;7.29;54.55
68656;BME280;55638;51.122;13.606;2023-03-26T00:16:18;99098.25;;;7.29;54.83
68656;BME280;55638;51.122;13.606;2023-03-26T00:17:50;99102.63;;;7.30;54.84
68656;BME280;55638;51.122;13.606;2023-03-26T00:19:24;99111.50;;;7.30;55.02
68656;BME280;55638;51.122;13.606;2023-03-26T00:21:04;99102.47;;;7.31;55.00
68656;BME280;55638;51.122;13.606;2023-03-26T00:22:36;99110.13;;;7.36;55.21
68656;BME280;55638;51.122;13.606;2023-03-26T00:24:10;99108.16;;;7.38;54.95
68656;BME280;55638;51.122;13.606;2023-03-26T00:25:45;99098.16;;;7.40;54.97
68656;BME280;55638;51.122;13.606;2023-03-26T00:27:21;99107.78;;;7.43;55.03
68656;BME280;55638;51.122;13.606;2023-03-26T00:28:53;99108.50;;;7.45;55.01
68656;BME280;55638;51.122;13.606;2023-03-26T00:30:25;99116.38;;;7.46;54.89
68656;BME280;55638;51.122;13.606;2023-03-26T00:31:58;99104.41;;;7.50;54.72
68656;BME280;55638;51.122;13.606;2023-03-26T00:33:30;99110.50;;;7.52;54.87
68656;BME280;55638;51.122;13.606;2023-03-26T00:35:03;99101.44;;;7.53;54.53
68656;BME280;55638;51.122;13.606;2023-03-26T00:36:35;99112.91;;;7.55;54.42
68656;BME280;55638;51.122;13.606;2023-03-26T00:38:07;99116.44;;;7.56;54.32
68656;BME280;55638;51.122;13.606;2023-03-26T00:39:39;99108.38;;;7.56;54.57
68656;BME280;55638;51.122;13.606;2023-03-26T00:41:16;99111.78;;;7.58;54.50
68656;BME280;55638;51.122;13.606;2023-03-26T00:42:48;99099.34;;;7.57;54.54
68656;BME280;55638;51.122;13.606;2023-03-26T00:44:20;99109.94;;;7.58;54.75
68656;BME280;55638;51.122;13.606;2023-03-26T00:45:53;99103.75;;;7.58;54.77
68656;BME280;55638;51.122;13.606;2023-03-26T00:47:27;99115.16;;;7.60;54.75
68656;BME280;55638;51.122;13.606;2023-03-26T00:48:59;99098.97;;;7.61;54.65
68656;BME280;55638;51.122;13.606;2023-03-26T00:50:32;99113.06;;;7.63;54.71
68656;BME280;55638;51.122;13.606;2023-03-26T00:52:04;99104.91;;;7.65;54.97
68656;BME280;55638;51.122;13.606;2023-03-26T00:53:39;99105.47;;;7.69;54.84
68656;BME280;55638;51.122;13.606;2023-03-26T00:55:11;99100.09;;;7.69;54.69
68656;BME280;55638;51.122;13.606;2023-03-26T00:56:44;99106.19;;;7.71;54.74
68656;BME280;55638;51.122;13.606;2023-03-26T00:58:16;99098.84;;;7.73;54.64
68656;BME280;55638;51.122;13.606;2023-03-26T00:59:48;99100.41;;;7.75;54.78
68656;BME280;55638;51.122;13.606;2023-03-26T01:01:23;99095.88;;;7.76;54.73
68656;BME280;55638;51.122;13.606;2023-03-26T01:03:00;99084.03;;;7.78;54.52
68656;BME280;55638;51.122;13.606;2023-03-26T01:04:33;99079.50;;;7.79;54.75
68656;BME280;55638;51.122;13.606;2023-03-26T01:06:08;99092.81;;;7.80;54.64
68656;BME280;55638;51.122;13.606;2023-03-26T01:07:41;99097.03;;;7.83;54.59
68656;BME280;55638;51.122;13.606;2023-03-26T01:09:20;99105.91;;;7.83;54.61
68656;BME280;55638;51.122;13.606;2023-03-26T01:10:54;99106.63;;;7.85;54.76
68656;BME280;55638;51.122;13.606;2023-03-26T01:12:33;99104.09;;;7.84;54.57
68656;BME280;55638;51.122;13.606;2023-03-26T01:14:24;99119.94;;;7.87;54.56
68656;BME280;55638;51.122;13.606;2023-03-26T01:15:58;99115.25;;;7.89;54.77
68656;BME280;55638;51.122;13.606;2023-03-26T01:17:32;99114.25;;;7.90;54.78
68656;BME280;55638;51.122;13.606;2023-03-26T01:19:14;99111.16;;;7.85;54.94
68656;BME280;55638;51.122;13.606;2023-03-26T01:20:49;99109.47;;;7.84;54.76
68656;BME280;55638;51.122;13.606;2023-03-26T01:22:25;99100.13;;;7.78;54.95
68656;BME280;55638;51.122;13.606;2023-03-26T01:24:03;99101.53;;;7.73;55.17
68656;BME280;55638;51.122;13.606;2023-03-26T01:25:41;99106.47;;;7.68;55.18
68656;BME280;55638;51.122;13.606;2023-03-26T01:27:35;99102.88;;;7.57;55.48
68656;BME280;55638;51.122;13.606;2023-03-26T01:29:18;99104.13;;;7.53;55.51
68656;BME280;55638;51.122;13.606;2023-03-26T01:31:00;99100.31;;;7.46;55.17
68656;BME280;55638;51.122;13.606;2023-03-26T01:32:47;99101.84;;;7.39;55.39
68656;BME280;55638;51.122;13.606;2023-03-26T01:34:45;99111.41;;;7.32;55.54
68656;BME280;55638;51.122;13.606;2023-03-26T01:36:28;99101.91;;;7.28;55.59
68656;BME280;55638;51.122;13.606;2023-03-26T01:38:17;99095.53;;;7.19;56.11
68656;BME280;55638;51.122;13.606;2023-03-26T01:39:56;99106.38;;;7.18;55.81
68656;BME280;55638;51.122;13.606;2023-03-26T01:41:52;99105.31;;;7.09;56.09
68656;BME280;55638;51.122;13.606;2023-03-26T01:43:31;99104.63;;;7.07;56.11
68656;BME280;55638;51.122;13.606;2023-03-26T01:45:13;99100.63;;;7.01;56.41
68656;BME280;55638;51.122;13.606;2023-03-26T01:46:47;99104.41;;;6.99;56.12
68656;BME280;55638;51.122;13.606;2023-03-26T01:48:27;99096.78;;;6.94;56.21
68656;BME280;55638;51.122;13.606;2023-03-26T01:50:01;99103.25;;;6.91;56.23
68656;BME280;55638;51.122;13.606;2023-03-26T01:51:34;99100.00;;;6.88;56.41
68656;BME280;55638;51.122;13.606;2023-03-26T01:53:08;99096.81;;;6.83;56.41
68656;BME280;55638;51.122;13.606;2023-03-26T01:54:41;99104.16;;;6.81;56.29
68656;BME280;55638;51.122;13.606;2023-03-26T02:01:37;99096.31;;;6.68;56.77
68656;BME280;55638;51.122;13.606;2023-03-26T02:03:30;99084.03;;;6.65;56.42
68656;BME280;55638;51.122;13.606;2023-03-26T02:05:08;99086.84;;;6.64;56.76
68656;BME280;55638;51.122;13.606;2023-03-26T02:06:45;99095.72;;;6.64;56.79
68656;BME280;55638;51.122;13.606;2023-03-26T02:10:02;99098.91;;;6.58;56.90
68656;BME280;55638;51.122;13.606;2023-03-26T02:11:37;99092.81;;;6.56;56.78
68656;BME280;55638;51.122;13.606;2023-03-26T02:13:11;99090.41;;;6.53;57.00
68656;BME280;55638;51.122;13.606;2023-03-26T02:14:44;99084.34;;;6.51;57.16
68656;BME280;55638;51.122;13.606;2023-03-26T02:16:16;99083.63;;;6.49;57.04
68656;BME280;55638;51.122;13.606;2023-03-26T02:17:51;99082.78;;;6.49;57.34
68656;BME280;55638;51.122;13.606;2023-03-26T02:19:24;99082.78;;;6.49;57.24
68656;BME280;55638;51.122;13.606;2023-03-26T02:20:56;99088.25;;;6.47;57.44
68656;BME280;55638;51.122;13.606;2023-03-26T02:22:28;99088.25;;;6.47;57.48
68656;BME280;55638;51.122;13.606;2023-03-26T02:24:02;99088.38;;;6.45;57.49
68656;BME280;55638;51.122;13.606;2023-03-26T02:25:38;99089.22;;;6.46;57.77
68656;BME280;55638;51.122;13.606;2023-03-26T02:27:13;99100.78;;;6.46;57.58
68656;BME280;55638;51.122;13.606;2023-03-26T02:28:46;99094.31;;;6.49;57.67
68656;BME280;55638;51.122;13.606;2023-03-26T02:30:24;99089.97;;;6.48;57.69
68656;BME280;55638;51.122;13.606;2023-03-26T02:31:59;99088.97;;;6.49;57.78
68656;BME280;55638;51.122;13.606;2023-03-26T02:33:32;99093.34;;;6.50;57.64
68656;BME280;55638;51.122;13.606;2023-03-26T02:35:05;99095.91;;;6.52;57.54
68656;BME280;55638;51.122;13.606;2023-03-26T02:36:38;99087.03;;;6.51;57.78
68656;BME280;55638;51.122;13.606;2023-03-26T02:38:13;99092.38;;;6.51;57.68
68656;BME280;55638;51.122;13.606;2023-03-26T02:39:46;99082.53;;;6.52;57.87
68656;BME280;55638;51.122;13.606;2023-03-26T02:41:27;99089.69;;;6.51;57.90
68656;BME280;55638;51.122;13.606;2023-03-26T02:43:04;99094.06;;;6.52;57.79
68656;BME280;55638;51.122;13.606;2023-03-26T02:44:37;99091.41;;;6.52;57.98
68656;BME280;55638;51.122;13.606;2023-03-26T02:46:22;99096.88;;;6.51;57.99
68656;BME280;55638;51.122;13.606;2023-03-26T02:48:08;99091.41;;;6.52;58.10
68656;BME280;55638;51.122;13.606;2023-03-26T02:49:51;99095.66;;;6.55;58.41
68656;BME280;55638;51.122;13.606;2023-03-26T02:51:43;99097.22;;;6.57;58.19
68656;BME280;55638;51.122;13.606;2023-03-26T02:53:25;99092.47;;;6.61;58.35
68656;BME280;55638;51.122;13.606;2023-03-26T02:55:17;99098.50;;;6.63;58.47
68656;BME280;55638;51.122;13.606;2023-03-26T02:56:50;99093.88;;;6.65;58.41
68656;BME280;55638;51.122;13.606;2023-03-26T02:58:41;99091.94;;;6.67;58.51
68656;BME280;55638;51.122;13.606;2023-03-26T03:00:13;99094.47;;;6.68;58.57
68656;BME280;55638;51.122;13.606;2023-03-26T03:01:50;99090.69;;;6.71;58.68
68656;BME280;55638;51.122;13.606;2023-03-26T03:03:25;99080.81;;;6.72;58.46
68656;BME280;55638;51.122;13.606;2023-03-26T03:05:00;99091.38;;;6.73;58.42
68656;BME280;55638;51.122;13.606;2023-03-26T03:06:37;99084.22;;;6.74;58.31
68656;BME280;55638;51.122;13.606;2023-03-26T03:08:09;99087.59;;;6.76;58.27
68656;BME280;55638;51.122;13.606;2023-03-26T03:09:47;99089.31;;;6.77;58.17
68656;BME280;55638;51.122;13.606;2023-03-26T03:11:50;99092.00;;;6.77;58.37
68656;BME280;55638;51.122;13.606;2023-03-26T03:13:23;99080.31;;;6.78;58.50
68656;BME280;55638;51.122;13.606;2023-03-26T03:14:55;99083.97;;;6.77;58.39
68656;BME280;55638;51.122;13.606;2023-03-26T03:16:27;99090.28;;;6.76;58.48
68656;BME280;55638;51.122;13.606;2023-03-26T03:18:01;99078.47;;;6.78;58.26
68656;BME280;55638;51.122;13.606;2023-03-26T03:19:36;99081.28;;;6.77;58.43
68656;BME280;55638;51.122;13.606;2023-03-26T03:21:08;99086.66;;;6.77;58.42
68656;BME280;55638;51.122;13.606;2023-03-26T03:22:40;99084.09;;;6.75;58.44
68656;BME280;55638;51.122;13.606;2023-03-26T03:24:12;99084.94;;;6.76;58.55
68656;BME280;55638;51.122;13.606;2023-03-26T03:25:48;99084.94;;;6.76;58.55
68656;BME280;55638;51.122;13.606;2023-03-26T03:27:21;99087.59;;;6.76;58.68
68656;BME280;55638;51.122;13.606;2023-03-26T03:29:01;99077.75;;;6.76;58.81
68656;BME280;55638;51.122;13.606;2023-03-26T03:30:34;99081.28;;;6.77;58.59
68656;BME280;55638;51.122;13.606;2023-03-26T03:32:18;99078.47;;;6.78;58.50
68656;BME280;55638;51.122;13.606;2023-03-26T03:33:55;99083.81;;;6.78;58.54
68656;BME280;55638;51.122;13.606;2023-03-26T03:35:28;99082.13;;;6.77;58.40
68656;BME280;55638;51.122;13.606;2023-03-26T03:37:04;99082.13;;;6.77;58.45
68656;BME280;55638;51.122;13.606;2023-03-26T03:38:44;99076.91;;;6.76;58.21
68656;BME280;55638;51.122;13.606;2023-03-26T03:40:20;99079.56;;;6.76;58.08
68656;BME280;55638;51.122;13.606;2023-03-26T03:41:52;99076.19;;;6.74;58.05
68656;BME280;55638;51.122;13.606;2023-03-26T03:43:24;99084.50;;;6.70;58.07
68656;BME280;55638;51.122;13.606;2023-03-26T03:45:12;99077.56;;;6.68;58.19
68656;BME280;55638;51.122;13.606;2023-03-26T03:46:47;99078.66;;;6.65;58.37
68656;BME280;55638;51.122;13.606;2023-03-26T03:48:20;99076.25;;;6.62;58.32
68656;BME280;55638;51.122;13.606;2023-03-26T03:49:52;99079.06;;;6.61;58.48
68656;BME280;55638;51.122;13.606;2023-03-26T03:51:24;99074.66;;;6.60;58.37
68656;BME280;55638;51.122;13.606;2023-03-26T03:52:59;99074.81;;;6.58;58.36
68656;BME280;55638;51.122;13.606;2023-03-26T03:54:32;99070.72;;;6.54;58.31
68656;BME280;55638;51.122;13.606;2023-03-26T03:56:37;99076.31;;;6.51;58.22
68656;BME280;55638;51.122;13.606;2023-03-26T03:58:28;99073.75;;;6.50;58.02
68656;BME280;55638;51.122;13.606;2023-03-26T04:00:09;99075.00;;;6.45;58.14
68656;BME280;55638;51.122;13.606;2023-03-26T04:01:53;99072.59;;;6.42;58.08
68656;BME280;55638;51.122;13.606;2023-03-26T04:03:35;99072.97;;;6.38;58.04
68656;BME280;55638;51.122;13.606;2023-03-26T04:05:14;99070.56;;;6.35;58.20
68656;BME280;55638;51.122;13.606;2023-03-26T04:06:51;99078.84;;;6.32;58.26
68656;BME280;55638;51.122;13.606;2023-03-26T04:08:23;99075.56;;;6.28;58.28
68656;BME280;55638;51.122;13.606;2023-03-26T04:09:58;99076.69;;;6.26;58.50
68656;BME280;55638;51.122;13.606;2023-03-26T04:11:35;99075.69;;;6.27;58.60
68656;BME280;55638;51.122;13.606;2023-03-26T04:13:30;99069.75;;;6.23;58.93
68656;BME280;55638;51.122;13.606;2023-03-26T04:15:21;99059.44;;;6.18;58.92
68656;BME280;55638;51.122;13.606;2023-03-26T04:16:53;99060.28;;;6.19;59.07
68656;BME280;55638;51.122;13.606;2023-03-26T04:18:26;99068.41;;;6.17;59.15
68656;BME280;55638;51.122;13.606;2023-03-26T04:20:04;99063.81;;;6.19;59.15
68656;BME280;55638;51.122;13.606;2023-03-26T04:21:37;99063.81;;;6.19;59.21
68656;BME280;55638;51.122;13.606;2023-03-26T04:23:10;99061.13;;;6.19;59.17
68656;BME280;55638;51.122;13.606;2023-03-26T04:24:46;99061.28;;;6.18;59.19
68656;BME280;55638;51.122;13.606;2023-03-26T04:26:32;99064.66;;;6.20;59.33
68656;BME280;55638;51.122;13.606;2023-03-26T04:28:08;99066.34;;;6.21;59.54
68656;BME280;55638;51.122;13.606;2023-03-26T04:30:04;99063.41;;;6.24;59.70
68656;BME280;55638;51.122;13.606;2023-03-26T04:31:37;99066.81;;;6.26;59.77
68656;BME280;55638;51.122;13.606;2023-03-26T04:33:11;99064.00;;;6.28;59.80
68656;BME280;55638;51.122;13.606;2023-03-26T04:34:47;99058.38;;;6.31;59.86
68656;BME280;55638;51.122;13.606;2023-03-26T04:36:26;99057.28;;;6.33;59.77
68656;BME280;55638;51.122;13.606;2023-03-26T04:37:59;99069.44;;;6.37;59.94
68656;BME280;55638;51.122;13.606;2023-03-26T04:39:38;99064.69;;;6.41;59.74
68656;BME280;55638;51.122;13.606;2023-03-26T04:41:31;99063.56;;;6.43;59.91
68656;BME280;55638;51.122;13.606;2023-03-26T04:43:13;99048.09;;;6.47;59.71
68656;BME280;55638;51.122;13.606;2023-03-26T04:45:05;99062.34;;;6.48;59.48
68656;BME280;55638;51.122;13.606;2023-03-26T04:46:37;99060.25;;;6.51;59.49
68656;BME280;55638;51.122;13.606;2023-03-26T04:48:20;99054.66;;;6.54;59.43
68656;BME280;55638;51.122;13.606;2023-03-26T04:49:52;99056.34;;;6.55;59.46
68656;BME280;55638;51.122;13.606;2023-03-26T04:51:26;99059.00;;;6.55;59.27
68656;BME280;55638;51.122;13.606;2023-03-26T04:53:01;99058.03;;;6.56;59.55
68656;BME280;55638;51.122;13.606;2023-03-26T04:54:52;99057.06;;;6.57;59.39
68656;BME280;55638;51.122;13.606;2023-03-26T04:56:39;99050.97;;;6.55;59.19
68656;BME280;55638;51.122;13.606;2023-03-26T04:58:17;99056.06;;;6.58;59.20
68656;BME280;55638;51.122;13.606;2023-03-26T05:00:00;99056.91;;;6.59;59.41
68656;BME280;55638;51.122;13.606;2023-03-26T05:01:40;99051.44;;;6.60;59.48
68656;BME280;55638;51.122;13.606;2023-03-26T05:03:14;99059.47;;;6.60;59.52
68656;BME280;55638;51.122;13.606;2023-03-26T05:04:47;99055.66;;;6.63;59.62
68656;BME280;55638;51.122;13.606;2023-03-26T05:06:21;99058.34;;;6.63;59.58
68656;BME280;55638;51.122;13.606;2023-03-26T05:07:53;99050.19;;;6.64;59.73
68656;BME280;55638;51.122;13.606;2023-03-26T05:09:26;99063.31;;;6.67;59.64
68656;BME280;55638;51.122;13.606;2023-03-26T05:11:19;99062.09;;;6.72;59.51
68656;BME280;55638;51.122;13.606;2023-03-26T05:12:51;99061.94;;;6.73;59.64
68656;BME280;55638;51.122;13.606;2023-03-26T05:14:29;99059.88;;;6.77;59.70
68656;BME280;55638;51.122;13.606;2023-03-26T05:16:02;99065.91;;;6.79;59.50
68656;BME280;55638;51.122;13.606;2023-03-26T05:17:43;99072.84;;;6.81;59.56
68656;BME280;55638;51.122;13.606;2023-03-26T05:19:24;99070.91;;;6.83;59.33
68656;BME280;55638;51.122;13.606;2023-03-26T05:20:56;99069.94;;;6.84;59.27
68656;BME280;55638;51.122;13.606;2023-03-26T05:22:30;99070.69;;;6.86;59.27
68656;BME280;55638;51.122;13.606;2023-03-26T05:24:13;99075.88;;;6.88;59.25
68656;BME280;55638;51.122;13.606;2023-03-26T05:25:45;99066.00;;;6.88;59.29
68656;BME280;55638;51.122;13.606;2023-03-26T05:27:23;99069.41;;;6.90;59.18
68656;BME280;55638;51.122;13.606;2023-03-26T05:28:55;99074.78;;;6.90;59.26
68656;BME280;55638;51.122;13.606;2023-03-26T05:30:32;99069.41;;;6.90;59.24
68656;BME280;55638;51.122;13.606;2023-03-26T05:32:06;99078.31;;;6.91;59.04
68656;BME280;55638;51.122;13.606;2023-03-26T05:33:38;99078.16;;;6.92;59.22
68656;BME280;55638;51.122;13.606;2023-03-26T05:35:16;99073.78;;;6.91;58.89
68656;BME280;55638;51.122;13.606;2023-03-26T05:36:48;99071.84;;;6.93;59.03
68656;BME280;55638;51.122;13.606;2023-03-26T05:38:42;99066.47;;;6.93;59.02
68656;BME280;55638;51.122;13.606;2023-03-26T05:40:21;99083.50;;;6.92;58.99
68656;BME280;55638;51.122;13.606;2023-03-26T05:42:00;99071.94;;;6.92;59.03
68656;BME280;55638;51.122;13.606;2023-03-26T05:43:43;99087.06;;;6.93;59.12
68656;BME280;55638;51.122;13.606;2023-03-26T05:45:23;99083.41;;;6.94;59.21
68656;BME280;55638;51.122;13.606;2023-03-26T05:46:55;99083.41;;;6.94;59.25
68656;BME280;55638;51.122;13.606;2023-03-26T05:48:30;99092.16;;;6.96;59.37
68656;BME280;55638;51.122;13.606;2023-03-26T05:50:03;99089.47;;;6.96;59.29
68656;BME280;55638;51.122;13.606;2023-03-26T05:51:39;99091.91;;;6.99;59.34
68656;BME280;55638;51.122;13.606;2023-03-26T05:53:34;99089.06;;;7.01;59.23
68656;BME280;55638;51.122;13.606;2023-03-26T05:55:24;99094.28;;;7.02;59.42
68656;BME280;55638;51.122;13.606;2023-03-26T05:57:22;99088.66;;;7.05;59.54
68656;BME280;55638;51.122;13.606;2023-03-26T05:59:13;99087.44;;;7.09;59.56
68656;BME280;55638;51.122;13.606;2023-03-26T06:01:12;99076.47;;;7.12;59.65
68656;BME280;55638;51.122;13.606;2023-03-26T06:03:06;99086.63;;;7.19;60.00
68656;BME280;55638;51.122;13.606;2023-03-26T06:05:12;99081.59;;;7.25;59.97
68656;BME280;55638;51.122;13.606;2023-03-26T06:06:50;99083.72;;;7.31;60.07
68656;BME280;55638;51.122;13.606;2023-03-26T06:08:23;99081.34;;;7.38;59.84
68656;BME280;55638;51.122;13.606;2023-03-26T06:09:57;99082.53;;;7.45;59.96
68656;BME280;55638;51.122;13.606;2023-03-26T06:11:29;99078.31;;;7.52;59.72
68656;BME280;55638;51.122;13.606;2023-03-26T06:13:04;99091.75;;;7.62;59.71
68656;BME280;55638;51.122;13.606;2023-03-26T06:14:38;99082.31;;;7.68;59.42
68656;BME280;55638;51.122;13.606;2023-03-26T06:16:30;99088.69;;;7.76;59.25
68656;BME280;55638;51.122;13.606;2023-03-26T06:18:24;99076.41;;;7.83;59.17
68656;BME280;55638;51.122;13.606;2023-03-26T06:20:21;99073.31;;;7.88;58.90
68656;BME280;55638;51.122;13.606;2023-03-26T06:21:55;99072.91;;;7.93;58.70
68656;BME280;55638;51.122;13.606;2023-03-26T06:23:35;99063.72;;;7.95;58.33
68656;BME280;55638;51.122;13.606;2023-03-26T06:25:33;99070.50;;;7.99;58.49
68656;BME280;55638;51.122;13.606;2023-03-26T06:27:11;99062.47;;;7.99;58.33
68656;BME280;55638;51.122;13.606;2023-03-26T06:29:03;99066.84;;;8.00;58.14
68656;BME280;55638;51.122;13.606;2023-03-26T06:30:49;99060.63;;;8.00;58.04
68656;BME280;55638;51.122;13.606;2023-03-26T06:32:40;99063.19;;;8.01;58.02
68656;BME280;55638;51.122;13.606;2023-03-26T06:34:20;99063.19;;;8.01;57.93
68656;BME280;55638;51.122;13.606;2023-03-26T06:35:52;99060.50;;;8.01;57.85
68656;BME280;55638;51.122;13.606;2023-03-26T06:37:25;99056.13;;;8.00;57.97
68656;BME280;55638;51.122;13.606;2023-03-26T06:39:02;99052.44;;;8.01;57.86
68656;BME280;55638;51.122;13.606;2023-03-26T06:40:40;99059.66;;;8.01;58.00
68656;BME280;55638;51.122;13.606;2023-03-26T06:42:29;99059.50;;;8.02;58.05
68656;BME280;55638;51.122;13.606;2023-03-26T06:44:37;99061.22;;;8.03;58.48
68656;BME280;55638;51.122;13.606;2023-03-26T06:46:34;99056.41;;;8.07;58.86
68656;BME280;55638;51.122;13.606;2023-03-26T06:48:36;99061.50;;;8.10;58.78
68656;BME280;55638;51.122;13.606;2023-03-26T06:50:28;99056.41;;;8.17;58.95
68656;BME280;55638;51.122;13.606;2023-03-26T06:52:30;99053.06;;;8.24;58.81
68656;BME280;55638;51.122;13.606;2023-03-26T06:54:22;99048.25;;;8.28;58.81
68656;BME280;55638;51.122;13.606;2023-03-26T06:55:53;99056.47;;;8.36;58.66
68656;BME280;55638;51.122;13.606;2023-03-26T06:57:37;99052.75;;;8.47;58.63
68656;BME280;55638;51.122;13.606;2023-03-26T06:59:41;99051.34;;;8.52;58.26
68656;BME280;55638;51.122;13.606;2023-03-26T07:01:32;99052.75;;;8.56;58.00
68656;BME280;55638;51.122;13.606;2023-03-26T07:03:22;99061.25;;;8.62;57.82
68656;BME280;55638;51.122;13.606;2023-03-26T07:05:13;99059.97;;;8.66;58.23
68656;BME280;55638;51.122;13.606;2023-03-26T07:07:04;99051.47;;;8.70;57.97
68656;BME280;55638;51.122;13.606;2023-03-26T07:08:54;99050.31;;;8.73;58.03
68656;BME280;55638;51.122;13.606;2023-03-26T07:10:46;99063.31;;;8.77;58.03
68656;BME280;55638;51.122;13.606;2023-03-26T07:12:38;99051.16;;;8.83;58.12
68656;BME280;55638;51.122;13.606;2023-03-26T07:14:50;99054.94;;;8.90;58.06
68656;BME280;55638;51.122;13.606;2023-03-26T07:16:42;99054.94;;;9.00;57.98
68656;BME280;55638;51.122;13.606;2023-03-26T07:18:17;99055.19;;;9.07;58.20
68656;BME280;55638;51.122;13.606;2023-03-26T07:19:49;99047.53;;;9.12;56.84
68656;BME280;55638;51.122;13.606;2023-03-26T07:21:27;99046.13;;;9.17;57.54
68656;BME280;55638;51.122;13.606;2023-03-26T07:22:59;99043.53;;;9.25;57.58
68656;BME280;55638;51.122;13.606;2023-03-26T07:24:54;99044.63;;;9.33;57.01
68656;BME280;55638;51.122;13.606;2023-03-26T07:28:54;99050.66;;;9.44;56.57
68656;BME280;55638;51.122;13.606;2023-03-26T07:33:17;99042.56;;;9.54;56.96
68656;BME280;55638;51.122;13.606;2023-03-26T07:35:26;99042.66;;;9.62;56.47
68656;BME280;55638;51.122;13.606;2023-03-26T07:37:34;99042.06;;;9.68;56.50
68656;BME280;55638;51.122;13.606;2023-03-26T07:39:43;99036.91;;;9.75;56.44
68656;BME280;55638;51.122;13.606;2023-03-26T07:41:43;99046.41;;;9.79;56.42
68656;BME280;55638;51.122;13.606;2023-03-26T07:43:58;99047.19;;;9.89;56.29
68656;BME280;55638;51.122;13.606;2023-03-26T07:45:56;99045.41;;;9.98;56.47
68656;BME280;55638;51.122;13.606;2023-03-26T07:47:47;99045.09;;;10.01;56.27
68656;BME280;55638;51.122;13.606;2023-03-26T07:49:29;99048.72;;;10.10;56.43
68656;BME280;55638;51.122;13.606;2023-03-26T07:51:17;99051.84;;;10.15;56.34
68656;BME280;55638;51.122;13.606;2023-03-26T07:52:55;99049.38;;;10.22;56.24
68656;BME280;55638;51.122;13.606;2023-03-26T07:54:35;99042.84;;;10.24;55.91
68656;BME280;55638;51.122;13.606;2023-03-26T07:56:36;99046.06;;;10.28;54.68
68656;BME280;55638;51.122;13.606;2023-03-26T07:58:43;99041.22;;;10.31;54.74
68656;BME280;55638;51.122;13.606;2023-03-26T08:00:44;99050.19;;;10.40;55.36
68656;BME280;55638;51.122;13.606;2023-03-26T08:02:45;99046.50;;;10.41;55.01
68656;BME280;55638;51.122;13.606;2023-03-26T08:05:03;99045.50;;;10.42;54.53
68656;BME280;55638;51.122;13.606;2023-03-26T08:07:27;99042.50;;;10.45;55.03
68656;BME280;55638;51.122;13.606;2023-03-26T08:09:26;99043.34;;;10.46;54.46
68656;BME280;55638;51.122;13.606;2023-03-26T08:14:37;99034.91;;;10.40;53.75
68656;BME280;55638;51.122;13.606;2023-03-26T08:16:19;99039.28;;;10.41;54.61
68656;BME280;55638;51.122;13.606;2023-03-26T08:21:29;99035.88;;;10.39;54.36
68656;BME280;55638;51.122;13.606;2023-03-26T08:23:10;99038.88;;;10.36;53.96
68656;BME280;55638;51.122;13.606;2023-03-26T08:25:07;99036.66;;;10.32;54.02
68656;BME280;55638;51.122;13.606;2023-03-26T08:29:09;99037.81;;;10.29;53.63
68656;BME280;55638;51.122;13.606;2023-03-26T08:30:41;99039.34;;;10.32;54.61
68656;BME280;55638;51.122;13.606;2023-03-26T08:32:15;99034.97;;;10.31;54.45
68656;BME280;55638;51.122;13.606;2023-03-26T08:33:48;99033.28;;;10.30;54.65
68656;BME280;55638;51.122;13.606;2023-03-26T08:35:21;99041.34;;;10.30;54.73
68656;BME280;55638;51.122;13.606;2023-03-26T08:36:53;99034.97;;;10.31;54.92
68656;BME280;55638;51.122;13.606;2023-03-26T08:38:25;99031.28;;;10.32;54.64
68656;BME280;55638;51.122;13.606;2023-03-26T08:39:56;99038.66;;;10.30;54.80
68656;BME280;55638;51.122;13.606;2023-03-26T08:41:45;99029.59;;;10.31;53.53
68656;BME280;55638;51.122;13.606;2023-03-26T08:47:15;99033.81;;;10.33;53.70
68656;BME280;55638;51.122;13.606;2023-03-26T08:50:01;99035.50;;;10.34;53.31
68656;BME280;55638;51.122;13.606;2023-03-26T08:51:35;99031.81;;;10.35;52.97
68656;BME280;55638;51.122;13.606;2023-03-26T08:57:33;99020.50;;;10.32;53.56
68656;BME280;55638;51.122;13.606;2023-03-26T09:01:16;99021.34;;;10.32;53.20
68656;BME280;55638;51.122;13.606;2023-03-26T09:03:11;99020.34;;;10.33;53.61
68656;BME280;55638;51.122;13.606;2023-03-26T09:12:26;99016.41;;;10.46;53.86
68656;BME280;55638;51.122;13.606;2023-03-26T09:14:25;99016.41;;;10.46;52.83
68656;BME280;55638;51.122;13.606;2023-03-26T09:21:02;99011.09;;;10.54;54.19
68656;BME280;55638;51.122;13.606;2023-03-26T09:32:23;99005.84;;;10.70;52.35
68656;BME280;55638;51.122;13.606;2023-03-26T09:34:27;98990.22;;;10.74;53.15
68656;BME280;55638;51.122;13.606;2023-03-26T09:38:44;98996.16;;;10.85;52.30
68656;BME280;55638;51.122;13.606;2023-03-26T09:40:41;98983.75;;;10.93;53.00
68656;BME280;55638;51.122;13.606;2023-03-26T09:42:42;98985.78;;;10.99;52.54
68656;BME280;55638;51.122;13.606;2023-03-26T09:44:31;98989.06;;;11.10;54.03
68656;BME280;55638;51.122;13.606;2023-03-26T09:48:34;98980.56;;;11.31;53.34
68656;BME280;55638;51.122;13.606;2023-03-26T09:50:27;98972.00;;;11.44;52.73
68656;BME280;55638;51.122;13.606;2023-03-26T09:54:13;98981.19;;;11.68;53.06